sensor_id;sensor_type;location;lat;lon;timestamp;pressure;altitude;pressure_sealevel;temperature;humidity
15817;BME280;8009;50.070;8.232;2024-01-16T00:00:26;99292.19;;;6.23;49.94
15817;BME280;8009;50.070;8.232;2024-01-16T00:02:54;99284.00;;;6.63;49.32
15817;BME280;8009;50.070;8.232;2024-01-16T00:05:22;99295.44;;;5.61;51.58
15817;BME280;8009;50.070;8.232;2024-01-16T00:07:51;99292.16;;;6.48;49.68
15817;BME280;8009;50.070;8.232;2024-01-16T00:10:19;99288.09;;;6.30;49.24
15817;BME280;8009;50.070;8.232;2024-01-16T00:12:47;99293.19;;;5.95;51.27
15817;BME280;8009;50.070;8.232;2024-01-16T00:15:18;99296.63;;;6.86;49.05
15817;BME280;8009;50.070;8.232;2024-01-16T00:17:47;99295.09;;;7.07;47.85
15817;BME280;8009;50.070;8.232;2024-01-16T00:20:16;99303.47;;;7.16;48.19
15817;BME280;8009;50.070;8.232;2024-01-16T00:22:45;99313.34;;;7.15;47.29
15817;BME280;8009;50.070;8.232;2024-01-16T00:25:13;99304.06;;;6.44;50.09
15817;BME280;8009;50.070;8.232;2024-01-16T00:27:45;99304.28;;;6.79;49.09
15817;BME280;8009;50.070;8.232;2024-01-16T00:30:14;99302.78;;;6.63;49.15
15817;BME280;8009;50.070;8.232;2024-01-16T00:32:45;99304.94;;;6.45;50.66
15817;BME280;8009;50.070;8.232;2024-01-16T00:35:13;99305.97;;;7.06;47.96
15817;BME280;8009;50.070;8.232;2024-01-16T00:37:42;99311.09;;;7.09;47.56
15817;BME280;8009;50.070;8.232;2024-01-16T00:40:11;99312.09;;;7.32;47.10
15817;BME280;8009;50.070;8.232;2024-01-16T00:42:39;99317.72;;;7.29;47.16
15817;BME280;8009;50.070;8.232;2024-01-16T00:45:08;99315.00;;;6.92;47.66
15817;BME280;8009;50.070;8.232;2024-01-16T00:47:36;99314.06;;;6.55;49.63
15817;BME280;8009;50.070;8.232;2024-01-16T00:50:08;99307.63;;;6.83;48.21
15817;BME280;8009;50.070;8.232;2024-01-16T00:52:36;99310.78;;;7.01;47.11
15817;BME280;8009;50.070;8.232;2024-01-16T00:55:06;99315.56;;;6.33;49.20
15817;BME280;8009;50.070;8.232;2024-01-16T00:57:34;99308.66;;;6.17;50.56
15817;BME280;8009;50.070;8.232;2024-01-16T01:00:03;99315.25;;;6.38;49.65
15817;BME280;8009;50.070;8.232;2024-01-16T01:02:32;99307.81;;;6.67;48.05
15817;BME280;8009;50.070;8.232;2024-01-16T01:05:00;99313.31;;;6.53;49.48
15817;BME280;8009;50.070;8.232;2024-01-16T01:07:31;99312.34;;;6.54;49.24
15817;BME280;8009;50.070;8.232;2024-01-16T01:09:59;99318.00;;;6.75;48.58
15817;BME280;8009;50.070;8.232;2024-01-16T01:12:28;99316.41;;;6.59;49.69
15817;BME280;8009;50.070;8.232;2024-01-16T01:14:59;99319.75;;;6.63;49.84
15817;BME280;8009;50.070;8.232;2024-01-16T01:17:27;99319.59;;;6.90;48.17
15817;BME280;8009;50.070;8.232;2024-01-16T01:20:12;99326.25;;;6.97;47.84
15817;BME280;8009;50.070;8.232;2024-01-16T01:22:44;99315.66;;;6.83;48.72
15817;BME280;8009;50.070;8.232;2024-01-16T01:25:12;99323.94;;;6.80;48.34
15817;BME280;8009;50.070;8.232;2024-01-16T01:27:41;99334.72;;;7.04;47.91
15817;BME280;8009;50.070;8.232;2024-01-16T01:30:10;99336.47;;;6.28;49.35
15817;BME280;8009;50.070;8.232;2024-01-16T01:32:39;99339.88;;;7.07;47.60
15817;BME280;8009;50.070;8.232;2024-01-16T01:35:09;99343.78;;;6.52;49.34
15817;BME280;8009;50.070;8.232;2024-01-16T01:37:39;99341.81;;;7.05;47.65
15817;BME280;8009;50.070;8.232;2024-01-16T01:40:11;99344.63;;;7.40;46.77
15817;BME280;8009;50.070;8.232;2024-01-16T01:42:41;99343.34;;;6.83;47.94
15817;BME280;8009;50.070;8.232;2024-01-16T01:45:10;99343.69;;;7.28;47.30
15817;BME280;8009;50.070;8.232;2024-01-16T01:47:41;99345.13;;;7.21;47.37
15817;BME280;8009;50.070;8.232;2024-01-16T01:50:10;99348.75;;;7.33;48.08
15817;BME280;8009;50.070;8.232;2024-01-16T01:52:40;99357.91;;;7.05;47.88
15817;BME280;8009;50.070;8.232;2024-01-16T01:55:13;99348.84;;;7.31;47.65
15817;BME280;8009;50.070;8.232;2024-01-16T01:57:42;99352.94;;;7.24;47.40
15817;BME280;8009;50.070;8.232;2024-01-16T02:00:12;99358.56;;;7.21;47.76
15817;BME280;8009;50.070;8.232;2024-01-16T02:02:43;99364.69;;;6.59;48.41
15817;BME280;8009;50.070;8.232;2024-01-16T02:05:11;99365.75;;;7.08;48.00
15817;BME280;8009;50.070;8.232;2024-01-16T02:07:41;99362.34;;;6.93;48.19
15817;BME280;8009;50.070;8.232;2024-01-16T02:10:13;99354.75;;;7.37;47.66
15817;BME280;8009;50.070;8.232;2024-01-16T02:12:41;99348.56;;;7.60;46.54
15817;BME280;8009;50.070;8.232;2024-01-16T02:15:10;99357.88;;;7.30;47.30
15817;BME280;8009;50.070;8.232;2024-01-16T02:17:38;99353.75;;;7.14;47.26
15817;BME280;8009;50.070;8.232;2024-01-16T02:20:08;99355.59;;;6.62;48.95
15817;BME280;8009;50.070;8.232;2024-01-16T02:22:37;99362.97;;;6.58;48.48
15817;BME280;8009;50.070;8.232;2024-01-16T02:25:09;99358.38;;;6.73;48.63
15817;BME280;8009;50.070;8.232;2024-01-16T02:27:37;99360.94;;;6.49;49.07
15817;BME280;8009;50.070;8.232;2024-01-16T02:30:07;99360.72;;;7.03;47.80
15817;BME280;8009;50.070;8.232;2024-01-16T02:32:35;99353.75;;;7.01;48.07
15817;BME280;8009;50.070;8.232;2024-01-16T02:35:07;99354.59;;;7.51;46.54
15817;BME280;8009;50.070;8.232;2024-01-16T02:37:35;99344.09;;;6.86;47.72
15817;BME280;8009;50.070;8.232;2024-01-16T02:40:05;99344.00;;;6.87;47.84
15817;BME280;8009;50.070;8.232;2024-01-16T02:42:37;99344.59;;;7.29;47.22
15817;BME280;8009;50.070;8.232;2024-01-16T02:45:06;99356.41;;;7.63;45.63
15817;BME280;8009;50.070;8.232;2024-01-16T02:47:35;99348.19;;;7.41;46.65
15817;BME280;8009;50.070;8.232;2024-01-16T02:50:04;99343.59;;;7.30;46.62
15817;BME280;8009;50.070;8.232;2024-01-16T02:52:35;99345.25;;;7.44;45.69
15817;BME280;8009;50.070;8.232;2024-01-16T02:55:04;99348.84;;;7.44;45.83
15817;BME280;8009;50.070;8.232;2024-01-16T02:57:32;99358.09;;;7.27;46.80
15817;BME280;8009;50.070;8.232;2024-01-16T03:00:05;99351.97;;;7.62;45.87
15817;BME280;8009;50.070;8.232;2024-01-16T03:02:35;99350.88;;;7.41;45.98
15817;BME280;8009;50.070;8.232;2024-01-16T03:05:06;99361.31;;;7.32;46.28
15817;BME280;8009;50.070;8.232;2024-01-16T03:07:34;99356.78;;;6.83;46.81
15817;BME280;8009;50.070;8.232;2024-01-16T03:10:03;99369.19;;;6.59;47.96
15817;BME280;8009;50.070;8.232;2024-01-16T03:12:32;99382.38;;;7.26;46.06
15817;BME280;8009;50.070;8.232;2024-01-16T03:15:04;99381.88;;;6.95;46.61
15817;BME280;8009;50.070;8.232;2024-01-16T03:17:36;99383.91;;;7.04;46.65
15817;BME280;8009;50.070;8.232;2024-01-16T03:20:07;99388.66;;;7.14;46.54
15817;BME280;8009;50.070;8.232;2024-01-16T03:22:37;99389.97;;;7.32;45.48
15817;BME280;8009;50.070;8.232;2024-01-16T03:25:08;99388.31;;;7.55;45.16
15817;BME280;8009;50.070;8.232;2024-01-16T03:27:37;99394.28;;;7.35;45.63
15817;BME280;8009;50.070;8.232;2024-01-16T03:30:09;99390.66;;;6.97;45.86
15817;BME280;8009;50.070;8.232;2024-01-16T03:32:42;99397.09;;;7.20;45.94
15817;BME280;8009;50.070;8.232;2024-01-16T03:35:10;99386.94;;;7.00;45.65
15817;BME280;8009;50.070;8.232;2024-01-16T03:37:38;99388.44;;;7.53;44.47
15817;BME280;8009;50.070;8.232;2024-01-16T03:40:08;99383.28;;;7.50;45.26
15817;BME280;8009;50.070;8.232;2024-01-16T03:42:38;99380.19;;;7.44;44.89
15817;BME280;8009;50.070;8.232;2024-01-16T03:45:09;99381.03;;;7.57;45.01
15817;BME280;8009;50.070;8.232;2024-01-16T03:47:38;99382.09;;;7.18;45.98
15817;BME280;8009;50.070;8.232;2024-01-16T03:50:07;99379.31;;;7.43;45.53
15817;BME280;8009;50.070;8.232;2024-01-16T03:52:36;99389.50;;;7.01;45.72
15817;BME280;8009;50.070;8.232;2024-01-16T03:55:05;99381.84;;;7.33;45.26
15817;BME280;8009;50.070;8.232;2024-01-16T03:57:33;99389.91;;;7.33;45.39
15817;BME280;8009;50.070;8.232;2024-01-16T04:00:02;99390.31;;;7.27;45.41
15817;BME280;8009;50.070;8.232;2024-01-16T04:02:33;99393.13;;;7.26;45.26
15817;BME280;8009;50.070;8.232;2024-01-16T04:05:02;99395.72;;;7.15;45.65
15817;BME280;8009;50.070;8.232;2024-01-16T04:07:31;99396.56;;;6.90;46.30
15817;BME280;8009;50.070;8.232;2024-01-16T04:09:59;99391.63;;;6.05;48.90
15817;BME280;8009;50.070;8.232;2024-01-16T04:15:41;99401.97;;;6.77;47.09
15817;BME280;8009;50.070;8.232;2024-01-16T04:18:13;99400.13;;;6.77;47.11
15817;BME280;8009;50.070;8.232;2024-01-16T04:20:42;99395.44;;;6.28;48.41
15817;BME280;8009;50.070;8.232;2024-01-16T04:23:11;99396.78;;;6.74;47.32
15817;BME280;8009;50.070;8.232;2024-01-16T04:25:39;99398.78;;;6.45;47.83
15817;BME280;8009;50.070;8.232;2024-01-16T04:28:08;99403.56;;;6.67;47.34
15817;BME280;8009;50.070;8.232;2024-01-16T04:30:33;99400.41;;;6.60;47.71
15817;BME280;8009;50.070;8.232;2024-01-16T04:39:28;99400.00;;;6.79;47.48
15817;BME280;8009;50.070;8.232;2024-01-16T04:41:56;99395.75;;;6.76;47.01
15817;BME280;8009;50.070;8.232;2024-01-16T04:44:25;99407.00;;;5.75;49.46
15817;BME280;8009;50.070;8.232;2024-01-16T04:47:01;99397.41;;;6.39;48.25
15817;BME280;8009;50.070;8.232;2024-01-16T04:49:31;99402.47;;;6.56;47.73
15817;BME280;8009;50.070;8.232;2024-01-16T04:51:59;99392.41;;;6.73;47.00
15817;BME280;8009;50.070;8.232;2024-01-16T04:54:35;99393.13;;;6.49;47.17
15817;BME280;8009;50.070;8.232;2024-01-16T04:57:04;99403.41;;;6.30;48.29
15817;BME280;8009;50.070;8.232;2024-01-16T04:59:33;99395.13;;;6.33;48.22
15817;BME280;8009;50.070;8.232;2024-01-16T05:02:01;99390.88;;;6.56;47.93
15817;BME280;8009;50.070;8.232;2024-01-16T05:04:29;99402.31;;;5.37;50.09
15817;BME280;8009;50.070;8.232;2024-01-16T05:06:59;99392.28;;;6.62;47.98
15817;BME280;8009;50.070;8.232;2024-01-16T05:09:34;99387.56;;;6.78;47.48
15817;BME280;8009;50.070;8.232;2024-01-16T05:12:03;99387.38;;;6.16;48.79
15817;BME280;8009;50.070;8.232;2024-01-16T05:14:32;99383.13;;;6.39;48.26
15817;BME280;8009;50.070;8.232;2024-01-16T05:17:01;99394.53;;;5.61;50.84
15817;BME280;8009;50.070;8.232;2024-01-16T05:19:29;99391.41;;;6.48;47.78
15817;BME280;8009;50.070;8.232;2024-01-16T05:21:58;99384.25;;;6.62;47.76
15817;BME280;8009;50.070;8.232;2024-01-16T05:24:26;99387.31;;;6.43;47.55
15817;BME280;8009;50.070;8.232;2024-01-16T05:26:57;99387.84;;;6.48;47.46
15817;BME280;8009;50.070;8.232;2024-01-16T05:29:25;99385.88;;;5.70;49.39
15817;BME280;8009;50.070;8.232;2024-01-16T05:49:40;99368.94;;;6.24;49.72
15817;BME280;8009;50.070;8.232;2024-01-16T05:52:10;99357.31;;;6.50;48.32
15817;BME280;8009;50.070;8.232;2024-01-16T05:54:53;99341.63;;;6.95;46.34
15817;BME280;8009;50.070;8.232;2024-01-16T05:57:24;99336.69;;;6.64;47.49
15817;BME280;8009;50.070;8.232;2024-01-16T05:59:58;99344.22;;;6.58;47.87
15817;BME280;8009;50.070;8.232;2024-01-16T06:02:28;99335.84;;;6.76;46.70
15817;BME280;8009;50.070;8.232;2024-01-16T06:05:05;99342.72;;;6.54;47.82
15817;BME280;8009;50.070;8.232;2024-01-16T06:07:34;99342.59;;;6.43;47.80
15817;BME280;8009;50.070;8.232;2024-01-16T06:10:07;99337.88;;;5.94;48.77
15817;BME280;8009;50.070;8.232;2024-01-16T06:16:21;99354.09;;;6.45;47.49
15817;BME280;8009;50.070;8.232;2024-01-16T06:18:50;99353.00;;;6.48;47.31
15817;BME280;8009;50.070;8.232;2024-01-16T06:21:23;99355.22;;;6.16;48.49
15817;BME280;8009;50.070;8.232;2024-01-16T06:23:54;99345.91;;;6.85;46.74
15817;BME280;8009;50.070;8.232;2024-01-16T06:26:28;99337.97;;;6.96;46.76
15817;BME280;8009;50.070;8.232;2024-01-16T06:28:56;99334.13;;;6.88;46.67
15817;BME280;8009;50.070;8.232;2024-01-16T06:31:29;99338.31;;;6.66;47.70
15817;BME280;8009;50.070;8.232;2024-01-16T06:33:58;99341.97;;;5.73;50.46
15817;BME280;8009;50.070;8.232;2024-01-16T06:36:30;99343.56;;;5.75;50.20
15817;BME280;8009;50.070;8.232;2024-01-16T06:39:00;99348.22;;;5.86;50.50
15817;BME280;8009;50.070;8.232;2024-01-16T06:41:29;99350.00;;;5.46;51.03
15817;BME280;8009;50.070;8.232;2024-01-16T06:43:58;99344.44;;;5.76;48.85
15817;BME280;8009;50.070;8.232;2024-01-16T06:46:26;99346.91;;;6.06;48.32
15817;BME280;8009;50.070;8.232;2024-01-16T06:48:56;99337.94;;;6.07;48.10
15817;BME280;8009;50.070;8.232;2024-01-16T06:51:24;99345.19;;;5.78;48.43
15817;BME280;8009;50.070;8.232;2024-01-16T06:53:55;99353.28;;;5.91;48.59
15817;BME280;8009;50.070;8.232;2024-01-16T06:56:35;99356.84;;;6.31;47.74
15817;BME280;8009;50.070;8.232;2024-01-16T06:59:05;99358.22;;;6.24;47.45
15817;BME280;8009;50.070;8.232;2024-01-16T07:01:33;99346.31;;;6.28;47.55
15817;BME280;8009;50.070;8.232;2024-01-16T07:07:41;99343.72;;;6.14;48.00
15817;BME280;8009;50.070;8.232;2024-01-16T07:10:16;99350.06;;;6.25;47.09
15817;BME280;8009;50.070;8.232;2024-01-16T07:16:20;99352.38;;;6.57;46.45
15817;BME280;8009;50.070;8.232;2024-01-16T07:18:49;99362.41;;;6.28;46.83
15817;BME280;8009;50.070;8.232;2024-01-16T07:21:19;99359.88;;;6.65;46.35
15817;BME280;8009;50.070;8.232;2024-01-16T07:23:48;99364.38;;;6.77;45.75
15817;BME280;8009;50.070;8.232;2024-01-16T07:26:19;99367.63;;;6.69;46.12
15817;BME280;8009;50.070;8.232;2024-01-16T07:28:48;99367.09;;;6.64;45.91
15817;BME280;8009;50.070;8.232;2024-01-16T07:31:16;99366.38;;;5.95;47.18
15817;BME280;8009;50.070;8.232;2024-01-16T07:33:48;99368.75;;;6.27;46.71
15817;BME280;8009;50.070;8.232;2024-01-16T07:36:17;99379.53;;;5.44;49.05
15817;BME280;8009;50.070;8.232;2024-01-16T07:38:45;99388.56;;;5.70;48.37
15817;BME280;8009;50.070;8.232;2024-01-16T07:41:17;99387.00;;;6.34;47.47
15817;BME280;8009;50.070;8.232;2024-01-16T07:43:48;99379.69;;;6.37;46.69
15817;BME280;8009;50.070;8.232;2024-01-16T07:46:18;99384.88;;;6.00;47.18
15817;BME280;8009;50.070;8.232;2024-01-16T07:48:46;99383.84;;;6.15;46.69
15817;BME280;8009;50.070;8.232;2024-01-16T07:51:14;99390.13;;;6.14;47.31
15817;BME280;8009;50.070;8.232;2024-01-16T07:53:43;99393.72;;;5.73;48.42
15817;BME280;8009;50.070;8.232;2024-01-16T07:56:11;99394.06;;;5.96;47.69
15817;BME280;8009;50.070;8.232;2024-01-16T07:58:40;99397.09;;;6.04;47.62
15817;BME280;8009;50.070;8.232;2024-01-16T08:01:11;99400.34;;;5.68;48.81
15817;BME280;8009;50.070;8.232;2024-01-16T08:03:40;99386.91;;;6.09;47.47
15817;BME280;8009;50.070;8.232;2024-01-16T08:06:08;99389.28;;;6.79;45.97
15817;BME280;8009;50.070;8.232;2024-01-16T08:08:36;99391.53;;;6.59;46.60
15817;BME280;8009;50.070;8.232;2024-01-16T08:11:05;99387.25;;;6.70;45.92
15817;BME280;8009;50.070;8.232;2024-01-16T08:13:33;99402.00;;;6.37;47.21
15817;BME280;8009;50.070;8.232;2024-01-16T08:16:02;99405.09;;;6.31;47.13
15817;BME280;8009;50.070;8.232;2024-01-16T08:18:35;99401.41;;;6.97;45.98
15817;BME280;8009;50.070;8.232;2024-01-16T08:21:03;99405.59;;;6.63;46.52
15817;BME280;8009;50.070;8.232;2024-01-16T08:23:29;99407.09;;;6.67;46.55
15817;BME280;8009;50.070;8.232;2024-01-16T08:25:58;99404.63;;;6.77;45.89
15817;BME280;8009;50.070;8.232;2024-01-16T08:28:26;99405.06;;;6.71;46.00
15817;BME280;8009;50.070;8.232;2024-01-16T08:30:54;99403.44;;;6.55;47.00
15817;BME280;8009;50.070;8.232;2024-01-16T08:33:24;99418.63;;;6.95;45.72
15817;BME280;8009;50.070;8.232;2024-01-16T08:35:55;99413.22;;;7.07;45.67
15817;BME280;8009;50.070;8.232;2024-01-16T08:38:23;99418.91;;;6.65;46.00
15817;BME280;8009;50.070;8.232;2024-01-16T08:40:53;99419.31;;;6.71;45.65
15817;BME280;8009;50.070;8.232;2024-01-16T08:43:21;99421.88;;;6.47;47.00
15817;BME280;8009;50.070;8.232;2024-01-16T08:45:49;99413.16;;;6.44;46.51
15817;BME280;8009;50.070;8.232;2024-01-16T08:48:18;99414.66;;;6.35;47.36
15817;BME280;8009;50.070;8.232;2024-01-16T08:50:46;99421.91;;;6.86;46.41
15817;BME280;8009;50.070;8.232;2024-01-16T08:53:17;99415.16;;;6.80;46.22
15817;BME280;8009;50.070;8.232;2024-01-16T08:55:48;99411.78;;;6.51;47.03
15817;BME280;8009;50.070;8.232;2024-01-16T08:58:16;99415.31;;;6.39;46.67
15817;BME280;8009;50.070;8.232;2024-01-16T09:00:45;99404.84;;;6.74;45.94
15817;BME280;8009;50.070;8.232;2024-01-16T09:03:13;99411.31;;;6.84;45.96
15817;BME280;8009;50.070;8.232;2024-01-16T09:05:41;99402.28;;;6.85;45.42
15817;BME280;8009;50.070;8.232;2024-01-16T09:14:37;99411.09;;;7.00;46.24
15817;BME280;8009;50.070;8.232;2024-01-16T09:20:17;99405.81;;;6.73;46.52
15817;BME280;8009;50.070;8.232;2024-01-16T09:22:45;99412.16;;;5.92;47.94
15817;BME280;8009;50.070;8.232;2024-01-16T09:25:14;99413.25;;;6.29;47.35
15817;BME280;8009;50.070;8.232;2024-01-16T09:27:42;99421.59;;;6.65;46.79
15817;BME280;8009;50.070;8.232;2024-01-16T09:36:36;99419.44;;;7.21;45.69
15817;BME280;8009;50.070;8.232;2024-01-16T09:39:06;99440.50;;;7.01;45.98
15817;BME280;8009;50.070;8.232;2024-01-16T09:41:36;99439.31;;;6.93;46.45
15817;BME280;8009;50.070;8.232;2024-01-16T09:44:06;99444.88;;;6.64;46.81
15817;BME280;8009;50.070;8.232;2024-01-16T09:46:37;99447.69;;;7.01;46.17
15817;BME280;8009;50.070;8.232;2024-01-16T09:49:06;99442.88;;;6.41;46.83
15817;BME280;8009;50.070;8.232;2024-01-16T09:51:38;99443.94;;;7.29;44.52
15817;BME280;8009;50.070;8.232;2024-01-16T09:54:06;99442.41;;;7.25;44.78
15817;BME280;8009;50.070;8.232;2024-01-16T09:56:35;99442.25;;;7.65;44.03
15817;BME280;8009;50.070;8.232;2024-01-16T09:59:09;99441.88;;;7.45;44.56
15817;BME280;8009;50.070;8.232;2024-01-16T10:01:37;99442.59;;;7.47;44.49
15817;BME280;8009;50.070;8.232;2024-01-16T10:04:07;99444.75;;;7.55;43.56
15817;BME280;8009;50.070;8.232;2024-01-16T10:06:39;99444.00;;;7.53;43.52
15817;BME280;8009;50.070;8.232;2024-01-16T10:09:07;99445.09;;;7.38;43.98
15817;BME280;8009;50.070;8.232;2024-01-16T10:11:38;99444.56;;;7.45;43.79
15817;BME280;8009;50.070;8.232;2024-01-16T10:14:07;99446.47;;;7.43;44.48
15817;BME280;8009;50.070;8.232;2024-01-16T10:16:55;99433.66;;;7.96;43.31
15817;BME280;8009;50.070;8.232;2024-01-16T10:19:24;99430.06;;;7.85;43.54
15817;BME280;8009;50.070;8.232;2024-01-16T10:22:04;99426.50;;;8.08;42.84
15817;BME280;8009;50.070;8.232;2024-01-16T10:24:34;99431.28;;;7.68;44.38
15817;BME280;8009;50.070;8.232;2024-01-16T10:27:03;99429.97;;;7.24;43.88
15817;BME280;8009;50.070;8.232;2024-01-16T10:29:32;99421.38;;;7.19;44.26
15817;BME280;8009;50.070;8.232;2024-01-16T10:32:01;99422.22;;;7.45;43.60
15817;BME280;8009;50.070;8.232;2024-01-16T10:34:30;99407.19;;;7.79;43.33
15817;BME280;8009;50.070;8.232;2024-01-16T10:36:59;99415.19;;;7.92;43.22
15817;BME280;8009;50.070;8.232;2024-01-16T10:39:31;99414.56;;;7.88;43.01
15817;BME280;8009;50.070;8.232;2024-01-16T10:42:05;99412.63;;;7.90;43.27
15817;BME280;8009;50.070;8.232;2024-01-16T10:44:33;99410.81;;;7.78;43.33
15817;BME280;8009;50.070;8.232;2024-01-16T10:47:10;99412.56;;;7.66;43.81
15817;BME280;8009;50.070;8.232;2024-01-16T10:49:41;99411.91;;;7.75;43.58
15817;BME280;8009;50.070;8.232;2024-01-16T10:52:11;99410.50;;;7.46;43.97
15817;BME280;8009;50.070;8.232;2024-01-16T10:54:44;99405.53;;;7.52;43.74
15817;BME280;8009;50.070;8.232;2024-01-16T10:57:18;99412.56;;;8.03;42.93
15817;BME280;8009;50.070;8.232;2024-01-16T10:59:53;99403.69;;;7.90;43.24
15817;BME280;8009;50.070;8.232;2024-01-16T11:02:35;99395.06;;;7.24;44.43
15817;BME280;8009;50.070;8.232;2024-01-16T11:05:07;99383.66;;;8.18;42.93
15817;BME280;8009;50.070;8.232;2024-01-16T11:07:41;99379.91;;;7.96;42.09
15817;BME280;8009;50.070;8.232;2024-01-16T11:10:14;99377.03;;;8.11;42.16
15817;BME280;8009;50.070;8.232;2024-01-16T11:12:49;99382.00;;;8.04;42.44
15817;BME280;8009;50.070;8.232;2024-01-16T11:18:54;99371.34;;;7.54;43.41
15817;BME280;8009;50.070;8.232;2024-01-16T11:21:22;99360.63;;;8.02;42.50
15817;BME280;8009;50.070;8.232;2024-01-16T11:23:51;99363.41;;;8.01;42.67
15817;BME280;8009;50.070;8.232;2024-01-16T11:26:27;99363.72;;;7.85;42.78
15817;BME280;8009;50.070;8.232;2024-01-16T11:28:58;99354.91;;;8.42;41.86
15817;BME280;8009;50.070;8.232;2024-01-16T11:31:28;99348.25;;;8.35;40.37
15817;BME280;8009;50.070;8.232;2024-01-16T11:33:56;99342.59;;;6.81;44.92
15817;BME280;8009;50.070;8.232;2024-01-16T11:36:52;99340.09;;;8.37;40.85
15817;BME280;8009;50.070;8.232;2024-01-16T11:39:22;99330.91;;;8.04;40.47
15817;BME280;8009;50.070;8.232;2024-01-16T11:41:56;99329.22;;;7.55;43.00
15817;BME280;8009;50.070;8.232;2024-01-16T11:44:39;99324.28;;;8.21;41.16
15817;BME280;8009;50.070;8.232;2024-01-16T11:47:05;99317.28;;;8.65;39.85
15817;BME280;8009;50.070;8.232;2024-01-16T11:49:34;99312.81;;;7.95;40.45
15817;BME280;8009;50.070;8.232;2024-01-16T11:52:03;99316.69;;;8.72;40.17
15817;BME280;8009;50.070;8.232;2024-01-16T11:54:32;99301.78;;;8.79;39.61
15817;BME280;8009;50.070;8.232;2024-01-16T11:57:17;99296.41;;;8.91;39.47
15817;BME280;8009;50.070;8.232;2024-01-16T12:00:01;99286.09;;;9.07;39.41
15817;BME280;8009;50.070;8.232;2024-01-16T12:02:46;99295.50;;;8.45;40.66
15817;BME280;8009;50.070;8.232;2024-01-16T12:05:16;99303.06;;;8.05;40.97
15817;BME280;8009;50.070;8.232;2024-01-16T12:07:49;99304.88;;;8.04;40.47
15817;BME280;8009;50.070;8.232;2024-01-16T12:10:20;99289.75;;;8.61;39.53
15817;BME280;8009;50.070;8.232;2024-01-16T12:12:56;99287.94;;;8.84;39.79
15817;BME280;8009;50.070;8.232;2024-01-16T12:15:26;99285.00;;;8.76;38.86
15817;BME280;8009;50.070;8.232;2024-01-16T12:17:58;99287.44;;;8.57;41.47
15817;BME280;8009;50.070;8.232;2024-01-16T12:20:29;99293.16;;;7.94;40.17
15817;BME280;8009;50.070;8.232;2024-01-16T12:22:59;99291.09;;;8.44;40.41
15817;BME280;8009;50.070;8.232;2024-01-16T12:25:30;99288.03;;;8.38;39.24
15817;BME280;8009;50.070;8.232;2024-01-16T12:28:02;99288.66;;;8.06;40.18
15817;BME280;8009;50.070;8.232;2024-01-16T12:30:32;99280.81;;;8.38;39.56
15817;BME280;8009;50.070;8.232;2024-01-16T12:33:08;99281.28;;;8.32;40.33
15817;BME280;8009;50.070;8.232;2024-01-16T12:35:39;99277.41;;;8.47;40.08
15817;BME280;8009;50.070;8.232;2024-01-16T12:38:11;99269.63;;;8.31;40.21
15817;BME280;8009;50.070;8.232;2024-01-16T12:40:41;99261.28;;;8.59;39.58
15817;BME280;8009;50.070;8.232;2024-01-16T12:43:13;99269.00;;;8.05;40.25
15817;BME280;8009;50.070;8.232;2024-01-16T12:45:41;99251.25;;;8.83;39.15
15817;BME280;8009;50.070;8.232;2024-01-16T12:48:10;99251.22;;;9.06;39.24
15817;BME280;8009;50.070;8.232;2024-01-16T12:50:39;99242.28;;;9.05;39.24
15817;BME280;8009;50.070;8.232;2024-01-16T12:53:09;99257.72;;;8.00;41.19
15817;BME280;8009;50.070;8.232;2024-01-16T12:55:38;99239.38;;;8.97;38.71
15817;BME280;8009;50.070;8.232;2024-01-16T12:58:15;99241.44;;;9.05;39.21
15817;BME280;8009;50.070;8.232;2024-01-16T13:00:44;99228.19;;;9.13;37.89
15817;BME280;8009;50.070;8.232;2024-01-16T13:03:16;99223.34;;;8.84;39.09
15817;BME280;8009;50.070;8.232;2024-01-16T13:05:46;99224.19;;;8.62;39.16
15817;BME280;8009;50.070;8.232;2024-01-16T13:08:19;99217.22;;;9.05;39.09
15817;BME280;8009;50.070;8.232;2024-01-16T13:11:01;99211.94;;;9.46;38.13
15817;BME280;8009;50.070;8.232;2024-01-16T13:13:33;99218.69;;;9.41;38.09
15817;BME280;8009;50.070;8.232;2024-01-16T13:16:03;99219.06;;;9.36;37.35
15817;BME280;8009;50.070;8.232;2024-01-16T13:18:32;99210.13;;;9.36;37.22
15817;BME280;8009;50.070;8.232;2024-01-16T13:21:01;99206.91;;;9.42;37.70
15817;BME280;8009;50.070;8.232;2024-01-16T13:23:29;99211.56;;;9.72;37.30
15817;BME280;8009;50.070;8.232;2024-01-16T13:25:58;99213.16;;;9.42;36.68
15817;BME280;8009;50.070;8.232;2024-01-16T13:28:29;99208.19;;;8.61;38.59
15817;BME280;8009;50.070;8.232;2024-01-16T13:31:01;99214.41;;;8.61;38.94
15817;BME280;8009;50.070;8.232;2024-01-16T13:33:30;99201.69;;;8.86;39.09
15817;BME280;8009;50.070;8.232;2024-01-16T13:36:06;99202.84;;;9.04;38.43
15817;BME280;8009;50.070;8.232;2024-01-16T13:38:35;99203.75;;;9.05;38.46
15817;BME280;8009;50.070;8.232;2024-01-16T13:41:03;99207.44;;;8.70;38.53
15817;BME280;8009;50.070;8.232;2024-01-16T13:43:33;99212.22;;;8.44;39.04
15817;BME280;8009;50.070;8.232;2024-01-16T13:46:05;99198.00;;;8.87;38.91
15817;BME280;8009;50.070;8.232;2024-01-16T13:48:35;99198.03;;;8.64;38.37
15817;BME280;8009;50.070;8.232;2024-01-16T13:51:06;99197.28;;;8.62;39.13
15817;BME280;8009;50.070;8.232;2024-01-16T13:53:37;99203.53;;;7.47;40.26
15817;BME280;8009;50.070;8.232;2024-01-16T13:56:08;99193.25;;;8.68;38.76
15817;BME280;8009;50.070;8.232;2024-01-16T13:58:37;99184.56;;;8.75;39.00
15817;BME280;8009;50.070;8.232;2024-01-16T14:01:08;99186.66;;;8.61;39.48
15817;BME280;8009;50.070;8.232;2024-01-16T14:03:39;99185.91;;;8.70;38.86
15817;BME280;8009;50.070;8.232;2024-01-16T14:06:10;99180.28;;;8.73;39.33
15817;BME280;8009;50.070;8.232;2024-01-16T14:08:39;99183.72;;;8.52;38.45
15817;BME280;8009;50.070;8.232;2024-01-16T14:11:07;99183.75;;;9.07;37.47
15817;BME280;8009;50.070;8.232;2024-01-16T14:13:35;99185.94;;;9.24;37.89
15817;BME280;8009;50.070;8.232;2024-01-16T14:16:05;99188.84;;;8.89;38.46
15817;BME280;8009;50.070;8.232;2024-01-16T14:18:37;99184.16;;;9.02;37.94
15817;BME280;8009;50.070;8.232;2024-01-16T14:21:07;99188.72;;;8.57;39.45
15817;BME280;8009;50.070;8.232;2024-01-16T14:23:35;99185.41;;;8.76;39.25
15817;BME280;8009;50.070;8.232;2024-01-16T14:26:04;99201.81;;;8.28;40.56
15817;BME280;8009;50.070;8.232;2024-01-16T14:28:33;99196.53;;;8.94;38.09
15817;BME280;8009;50.070;8.232;2024-01-16T14:31:02;99198.38;;;8.82;38.72
15817;BME280;8009;50.070;8.232;2024-01-16T14:33:31;99199.06;;;9.07;38.82
15817;BME280;8009;50.070;8.232;2024-01-16T14:36:02;99213.81;;;8.46;39.70